createdAt,value
2018-03-22T00:00:11.589Z,8.04672
2018-03-22T00:00:23.778Z,9.656064
2018-03-22T00:00:35.958Z,9.656064
2018-03-22T00:00:48.137Z,9.656064
2018-03-22T00:01:00.318Z,9.656064
2018-03-22T00:01:12.492Z,8.04672
2018-03-22T00:01:24.737Z,9.656064
2018-03-22T00:01:36.935Z,9.656064
2018-03-22T00:01:49.110Z,9.656064
2018-03-22T00:02:01.295Z,9.656064
2018-03-22T00:02:13.477Z,1.609344
2018-03-22T00:02:25.659Z,9.656064
2018-03-22T00:02:37.829Z,9.656064
2018-03-22T00:02:50.041Z,9.656064
2018-03-22T00:03:02.236Z,9.656064
2018-03-22T00:03:14.460Z,3.218688
2018-03-22T00:03:26.681Z,9.656064
2018-03-22T00:03:38.863Z,9.656064
2018-03-22T00:03:51.032Z,9.656064
2018-03-22T00:04:03.232Z,3.218688
2018-03-22T00:04:15.412Z,6.437376
2018-03-22T00:04:27.652Z,6.437376
2018-03-22T00:04:39.880Z,6.437376
2018-03-22T00:04:52.053Z,8.04672
2018-03-22T00:05:04.242Z,6.437376
2018-03-22T00:05:16.421Z,9.656064
2018-03-22T00:05:28.621Z,9.656064
2018-03-22T00:05:40.818Z,9.656064
2018-03-22T00:05:52.982Z,9.656064
2018-03-22T00:06:05.160Z,8.04672
2018-03-22T00:06:17.373Z,8.04672
2018-03-22T00:06:29.789Z,8.04672
2018-03-22T00:06:41.978Z,8.04672
2018-03-22T00:06:54.162Z,9.656064
2018-03-22T00:07:06.366Z,6.437376
2018-03-22T00:07:18.675Z,9.656064
2018-03-22T00:07:30.868Z,9.656064
2018-03-22T00:07:43.097Z,9.656064
2018-03-22T00:07:55.270Z,9.656064
2018-03-22T00:08:07.458Z,8.04672
2018-03-22T00:08:19.635Z,8.04672
2018-03-22T00:08:31.823Z,8.04672
2018-03-22T00:08:44.085Z,8.04672
2018-03-22T00:08:56.243Z,8.04672
2018-03-22T00:09:08.479Z,6.437376
2018-03-22T00:09:20.663Z,6.437376
2018-03-22T00:09:32.855Z,6.437376
2018-03-22T00:09:45.037Z,6.437376
2018-03-22T00:09:57.213Z,6.437376
2018-03-22T00:10:09.389Z,8.04672
2018-03-22T00:10:21.562Z,12.874752
2018-03-22T00:10:33.743Z,12.874752
2018-03-22T00:10:45.916Z,12.874752
2018-03-22T00:10:58.094Z,12.874752
2018-03-22T00:11:10.273Z,8.04672
2018-03-22T00:11:22.636Z,8.04672
2018-03-22T00:11:34.825Z,8.04672
2018-03-22T00:11:47.043Z,9.656064
2018-03-22T00:11:59.308Z,9.656064
2018-03-22T00:12:11.503Z,8.04672
2018-03-22T00:12:23.693Z,8.04672
2018-03-22T00:12:35.866Z,9.656064
2018-03-22T00:12:48.312Z,9.656064
2018-03-22T00:13:00.497Z,9.656064
2018-03-22T00:13:12.686Z,8.04672
2018-03-22T00:13:24.874Z,9.656064
2018-03-22T00:13:37.048Z,12.874752
2018-03-22T00:13:49.220Z,12.874752
2018-03-22T00:14:01.400Z,12.874752
2018-03-22T00:14:13.581Z,8.04672
2018-03-22T00:14:25.744Z,8.04672
2018-03-22T00:14:37.913Z,8.04672
2018-03-22T00:14:50.101Z,8.04672
2018-03-22T00:15:02.278Z,8.04672
2018-03-22T00:15:14.447Z,4.828032
2018-03-22T00:15:26.686Z,4.828032
2018-03-22T00:15:38.852Z,4.828032
2018-03-22T00:15:51.032Z,4.828032
2018-03-22T00:16:03.222Z,6.437376
2018-03-22T00:16:15.452Z,6.437376
2018-03-22T00:16:27.954Z,6.437376
2018-03-22T00:16:40.305Z,9.656064
2018-03-22T00:16:52.483Z,9.656064
2018-03-22T00:17:04.657Z,4.828032
2018-03-22T00:17:16.826Z,8.04672
2018-03-22T00:17:29.077Z,11.265408
2018-03-22T00:17:41.287Z,11.265408
2018-03-22T00:17:53.512Z,11.265408
2018-03-22T00:18:05.694Z,11.265408
2018-03-22T00:18:17.867Z,11.265408
2018-03-22T00:18:30.076Z,11.265408
2018-03-22T00:18:42.395Z,11.265408
2018-03-22T00:18:54.590Z,11.265408
2018-03-22T00:19:06.777Z,6.437376
2018-03-22T00:19:19.027Z,9.656064
2018-03-22T00:19:31.197Z,9.656064
2018-03-22T00:19:43.401Z,9.656064
2018-03-22T00:19:55.592Z,9.656064
2018-03-22T00:20:07.780Z,4.828032
2018-03-22T00:20:19.988Z,4.828032
2018-03-22T00:20:32.182Z,4.828032
2018-03-22T00:20:44.354Z,4.828032
2018-03-22T00:20:56.537Z,4.828032
2018-03-22T00:21:08.767Z,3.218688
2018-03-22T00:21:20.937Z,4.828032
2018-03-22T00:21:33.230Z,6.437376
2018-03-22T00:21:45.443Z,6.437376
2018-03-22T00:21:57.613Z,6.437376
2018-03-22T00:22:09.800Z,4.828032
2018-03-22T00:22:21.975Z,4.828032
2018-03-22T00:22:34.162Z,4.828032
2018-03-22T00:22:46.422Z,8.04672
2018-03-22T00:22:58.607Z,8.04672
2018-03-22T00:23:10.783Z,6.437376
2018-03-22T00:23:22.956Z,9.656064
2018-03-22T00:23:35.156Z,9.656064
2018-03-22T00:23:47.337Z,9.656064
2018-03-22T00:23:59.529Z,9.656064
2018-03-22T00:24:11.706Z,3.218688
2018-03-22T00:24:24.207Z,9.656064
2018-03-22T00:24:36.400Z,9.656064
2018-03-22T00:24:48.568Z,9.656064
2018-03-22T00:25:00.765Z,9.656064
2018-03-22T00:25:12.985Z,8.04672
2018-03-22T00:25:25.158Z,8.04672
2018-03-22T00:25:37.344Z,8.04672
2018-03-22T00:25:49.508Z,8.04672
2018-03-22T00:26:01.676Z,8.04672
2018-03-22T00:26:13.862Z,8.04672
2018-03-22T00:26:26.054Z,9.656064
2018-03-22T00:26:38.257Z,11.265408
2018-03-22T00:26:50.804Z,11.265408
2018-03-22T00:27:03.118Z,1.609344
2018-03-22T00:27:15.313Z,4.828032
2018-03-22T00:27:27.482Z,6.437376
2018-03-22T00:27:39.661Z,6.437376
2018-03-22T00:27:51.833Z,9.656064
2018-03-22T00:28:04.015Z,8.04672
2018-03-22T00:28:16.193Z,8.04672
2018-03-22T00:28:28.386Z,8.04672
2018-03-22T00:28:40.556Z,8.04672
2018-03-22T00:28:52.736Z,8.04672
2018-03-22T00:29:04.906Z,3.218688
2018-03-22T00:29:17.095Z,3.218688
2018-03-22T00:29:29.276Z,3.218688
2018-03-22T00:29:41.488Z,3.218688
2018-03-22T00:29:53.849Z,3.218688
2018-03-22T00:30:06.051Z,1.609344
2018-03-22T00:30:18.254Z,3.218688
2018-03-22T00:30:30.451Z,3.218688
2018-03-22T00:30:42.631Z,8.04672
2018-03-22T00:30:54.799Z,8.04672
2018-03-22T00:31:06.984Z,9.656064
2018-03-22T00:31:19.184Z,11.265408
2018-03-22T00:31:31.354Z,12.874752
2018-03-22T00:31:43.546Z,16.09344
2018-03-22T00:31:55.714Z,16.09344
2018-03-22T00:32:07.922Z,14.484096
2018-03-22T00:32:20.232Z,14.484096
2018-03-22T00:32:32.445Z,14.484096
2018-03-22T00:32:44.693Z,14.484096
2018-03-22T00:32:56.918Z,14.484096
2018-03-22T00:33:09.126Z,3.218688
2018-03-22T00:33:21.376Z,4.828032
2018-03-22T00:33:33.546Z,4.828032
2018-03-22T00:33:45.757Z,6.437376
2018-03-22T00:33:57.937Z,12.874752
2018-03-22T00:34:10.126Z,11.265408
2018-03-22T00:34:22.349Z,11.265408
2018-03-22T00:34:34.626Z,11.265408
2018-03-22T00:34:46.782Z,11.265408
2018-03-22T00:34:59.009Z,11.265408
2018-03-22T00:35:11.159Z,8.04672
2018-03-22T00:35:23.303Z,8.04672
2018-03-22T00:35:35.448Z,9.656064
2018-03-22T00:35:47.593Z,9.656064
2018-03-22T00:35:59.728Z,9.656064
2018-03-22T00:36:11.868Z,9.656064
2018-03-22T00:36:24.031Z,9.656064
2018-03-22T00:36:36.163Z,9.656064
2018-03-22T00:36:48.340Z,9.656064
2018-03-22T00:37:00.469Z,9.656064
2018-03-22T00:37:12.626Z,9.656064
2018-03-22T00:37:24.998Z,9.656064
2018-03-22T00:37:37.160Z,11.265408
2018-03-22T00:37:49.336Z,11.265408
2018-03-22T00:38:01.472Z,11.265408
2018-03-22T00:38:13.594Z,8.04672
2018-03-22T00:38:25.754Z,11.265408
2018-03-22T00:38:37.879Z,11.265408
2018-03-22T00:38:50.012Z,11.265408
2018-03-22T00:39:02.146Z,11.265408
2018-03-22T00:39:14.306Z,9.656064
2018-03-22T00:39:26.713Z,9.656064
2018-03-22T00:39:38.856Z,9.656064
2018-03-22T00:39:51.128Z,12.874752
2018-03-22T00:40:03.286Z,6.437376
2018-03-22T00:40:15.409Z,6.437376
2018-03-22T00:40:27.546Z,6.437376
2018-03-22T00:40:39.685Z,6.437376
2018-03-22T00:40:51.907Z,8.04672
2018-03-22T00:41:04.118Z,1.609344
2018-03-22T00:41:16.253Z,9.656064
2018-03-22T00:41:28.379Z,9.656064
2018-03-22T00:41:40.523Z,9.656064
2018-03-22T00:41:52.635Z,9.656064
2018-03-22T00:42:04.783Z,9.656064
2018-03-22T00:42:16.958Z,9.656064
2018-03-22T00:42:29.094Z,12.874752
2018-03-22T00:42:41.227Z,12.874752
2018-03-22T00:42:53.387Z,12.874752
2018-03-22T00:43:05.524Z,8.04672
2018-03-22T00:43:17.693Z,8.04672
2018-03-22T00:43:29.821Z,8.04672
2018-03-22T00:43:41.954Z,8.04672
2018-03-22T00:43:54.132Z,12.874752
2018-03-22T00:44:06.281Z,9.656064
2018-03-22T00:44:18.413Z,9.656064
2018-03-22T00:44:30.584Z,9.656064
2018-03-22T00:44:42.752Z,9.656064
2018-03-22T00:44:54.878Z,9.656064
2018-03-22T00:45:07.003Z,8.04672
2018-03-22T00:45:19.147Z,8.04672
2018-03-22T00:45:31.288Z,8.04672
2018-03-22T00:45:43.438Z,8.04672
2018-03-22T00:45:55.586Z,8.04672
2018-03-22T00:46:07.719Z,1.609344
2018-03-22T00:46:19.869Z,3.218688
2018-03-22T00:46:31.990Z,3.218688
2018-03-22T00:46:44.131Z,4.828032
2018-03-22T00:46:56.273Z,6.437376
2018-03-22T00:47:08.408Z,4.828032
2018-03-22T00:47:20.592Z,4.828032
2018-03-22T00:47:32.851Z,11.265408
2018-03-22T00:47:44.971Z,12.874752
2018-03-22T00:47:57.230Z,12.874752
2018-03-22T00:48:09.371Z,4.828032
2018-03-22T00:48:21.508Z,4.828032
2018-03-22T00:48:33.640Z,4.828032
2018-03-22T00:48:45.765Z,4.828032
2018-03-22T00:48:57.900Z,9.656064
2018-03-22T00:49:10.036Z,6.437376
2018-03-22T00:49:22.173Z,6.437376
2018-03-22T00:49:34.343Z,8.04672
2018-03-22T00:49:46.466Z,8.04672
2018-03-22T00:49:58.649Z,11.265408
2018-03-22T00:50:10.782Z,8.04672
2018-03-22T00:50:22.940Z,8.04672
2018-03-22T00:50:35.057Z,8.04672
2018-03-22T00:50:47.237Z,8.04672
2018-03-22T00:50:59.375Z,9.656064
2018-03-22T00:51:11.539Z,9.656064
2018-03-22T00:51:23.666Z,9.656064
2018-03-22T00:51:35.825Z,9.656064
2018-03-22T00:51:47.965Z,9.656064
2018-03-22T00:52:00.109Z,9.656064
2018-03-22T00:52:12.240Z,6.437376
2018-03-22T00:52:24.364Z,9.656064
2018-03-22T00:52:36.557Z,9.656064
2018-03-22T00:52:48.692Z,9.656064
2018-03-22T00:53:00.823Z,9.656064
2018-03-22T00:53:12.992Z,6.437376
2018-03-22T00:53:25.165Z,6.437376
2018-03-22T00:53:37.314Z,6.437376
2018-03-22T00:53:49.436Z,6.437376
2018-03-22T00:54:01.582Z,6.437376
2018-03-22T00:54:13.707Z,1.609344
2018-03-22T00:54:25.853Z,3.218688
2018-03-22T00:54:37.984Z,3.218688
2018-03-22T00:54:50.257Z,3.218688
2018-03-22T00:55:02.408Z,3.218688
2018-03-22T00:55:14.679Z,6.437376
2018-03-22T00:55:26.828Z,8.04672
2018-03-22T00:55:38.957Z,8.04672
2018-03-22T00:55:51.087Z,8.04672
2018-03-22T00:56:03.266Z,1.609344
2018-03-22T00:56:15.448Z,3.218688
2018-03-22T00:56:27.596Z,3.218688
2018-03-22T00:56:39.736Z,3.218688
2018-03-22T00:56:51.901Z,6.437376
2018-03-22T00:57:04.031Z,3.218688
2018-03-22T00:57:16.181Z,8.04672
2018-03-22T00:57:28.323Z,8.04672
2018-03-22T00:57:40.482Z,8.04672
2018-03-22T00:57:52.608Z,8.04672
2018-03-22T00:58:04.727Z,9.656064
2018-03-22T00:58:16.859Z,9.656064
2018-03-22T00:58:28.985Z,9.656064
2018-03-22T00:58:41.109Z,11.265408
2018-03-22T00:58:53.323Z,11.265408
2018-03-22T00:59:05.448Z,1.609344
2018-03-22T00:59:17.630Z,4.828032
2018-03-22T00:59:29.844Z,6.437376
2018-03-22T00:59:41.998Z,8.04672
2018-03-22T00:59:54.301Z,8.04672
2018-03-22T01:00:06.459Z,6.437376
2018-03-22T01:00:18.648Z,6.437376
2018-03-22T01:00:30.817Z,6.437376
2018-03-22T01:00:42.952Z,9.656064
2018-03-22T01:00:55.073Z,11.265408
2018-03-22T01:01:07.193Z,4.828032
2018-03-22T01:01:19.369Z,6.437376
2018-03-22T01:01:31.491Z,11.265408
2018-03-22T01:01:43.647Z,11.265408
2018-03-22T01:01:55.823Z,11.265408
2018-03-22T01:02:07.964Z,6.437376
2018-03-22T01:02:20.116Z,6.437376
2018-03-22T01:02:32.278Z,8.04672
2018-03-22T01:02:44.464Z,8.04672
2018-03-22T01:02:56.613Z,8.04672
2018-03-22T01:03:08.747Z,11.265408
2018-03-22T01:03:20.888Z,11.265408
2018-03-22T01:03:33.011Z,11.265408
2018-03-22T01:03:45.155Z,11.265408
2018-03-22T01:03:57.294Z,11.265408
2018-03-22T01:04:09.473Z,6.437376
2018-03-22T01:04:21.654Z,6.437376
2018-03-22T01:04:33.789Z,6.437376
2018-03-22T01:04:45.945Z,6.437376
2018-03-22T01:04:58.085Z,6.437376
2018-03-22T01:05:10.287Z,3.218688
2018-03-22T01:05:22.429Z,3.218688
2018-03-22T01:05:34.559Z,3.218688
2018-03-22T01:05:46.756Z,3.218688
2018-03-22T01:05:58.899Z,3.218688
2018-03-22T01:06:11.062Z,3.218688
2018-03-22T01:06:23.194Z,3.218688
2018-03-22T01:06:35.327Z,3.218688
2018-03-22T01:06:47.471Z,8.04672
2018-03-22T01:06:59.604Z,8.04672
2018-03-22T01:07:11.742Z,3.218688
2018-03-22T01:07:24.025Z,9.656064
2018-03-22T01:07:36.177Z,9.656064
2018-03-22T01:07:48.332Z,9.656064
2018-03-22T01:08:00.455Z,9.656064
2018-03-22T01:08:12.600Z,9.656064
2018-03-22T01:08:24.720Z,9.656064
2018-03-22T01:08:36.858Z,9.656064
2018-03-22T01:08:49.026Z,9.656064
2018-03-22T01:09:01.153Z,9.656064
2018-03-22T01:09:13.295Z,9.656064
2018-03-22T01:09:25.434Z,9.656064
2018-03-22T01:09:37.573Z,9.656064
2018-03-22T01:09:49.692Z,9.656064
2018-03-22T01:10:01.820Z,9.656064
2018-03-22T01:10:13.953Z,6.437376
2018-03-22T01:10:26.240Z,6.437376
2018-03-22T01:10:38.413Z,6.437376
2018-03-22T01:10:50.938Z,6.437376
2018-03-22T01:11:03.069Z,4.828032
2018-03-22T01:11:15.359Z,8.04672
2018-03-22T01:11:27.523Z,8.04672
2018-03-22T01:11:39.641Z,8.04672
2018-03-22T01:11:51.789Z,11.265408
2018-03-22T01:12:03.970Z,11.265408
2018-03-22T01:12:16.152Z,11.265408
2018-03-22T01:12:28.283Z,11.265408
2018-03-22T01:12:40.438Z,11.265408
2018-03-22T01:12:52.844Z,11.265408
2018-03-22T01:13:04.979Z,1.609344
2018-03-22T01:13:17.130Z,8.04672
2018-03-22T01:13:29.259Z,8.04672
2018-03-22T01:13:41.390Z,8.04672
2018-03-22T01:13:53.561Z,9.656064
2018-03-22T01:14:05.693Z,8.04672
2018-03-22T01:14:17.852Z,9.656064
2018-03-22T01:14:30.009Z,9.656064
2018-03-22T01:14:42.148Z,9.656064
2018-03-22T01:14:54.318Z,9.656064
2018-03-22T01:15:06.457Z,1.609344
2018-03-22T01:15:18.600Z,8.04672
2018-03-22T01:15:30.735Z,8.04672
2018-03-22T01:15:42.889Z,11.265408
2018-03-22T01:15:55.037Z,12.874752
2018-03-22T01:16:07.189Z,11.265408
2018-03-22T01:16:19.323Z,11.265408
2018-03-22T01:16:31.467Z,11.265408
2018-03-22T01:16:43.756Z,11.265408
2018-03-22T01:16:55.916Z,11.265408
2018-03-22T01:17:08.065Z,8.04672
2018-03-22T01:17:20.205Z,8.04672
2018-03-22T01:17:32.330Z,8.04672
2018-03-22T01:17:44.453Z,8.04672
2018-03-22T01:17:56.593Z,8.04672
2018-03-22T01:18:08.781Z,1.609344
2018-03-22T01:18:21.050Z,6.437376
2018-03-22T01:18:33.234Z,8.04672
2018-03-22T01:18:45.591Z,8.04672
2018-03-22T01:18:57.801Z,8.04672
2018-03-22T01:19:09.941Z,8.04672
2018-03-22T01:19:22.112Z,9.656064
2018-03-22T01:19:34.275Z,9.656064
2018-03-22T01:19:46.401Z,9.656064
2018-03-22T01:19:58.551Z,9.656064
2018-03-22T01:20:10.713Z,12.874752
2018-03-22T01:20:22.894Z,12.874752
2018-03-22T01:20:35.026Z,12.874752
2018-03-22T01:20:47.161Z,12.874752
2018-03-22T01:20:59.284Z,12.874752
2018-03-22T01:21:11.476Z,8.04672
2018-03-22T01:21:23.623Z,8.04672
2018-03-22T01:21:35.820Z,8.04672
2018-03-22T01:21:47.983Z,9.656064
2018-03-22T01:22:00.267Z,9.656064
2018-03-22T01:22:12.412Z,11.265408
2018-03-22T01:22:24.557Z,12.874752
2018-03-22T01:22:36.701Z,14.484096
2018-03-22T01:22:48.838Z,14.484096
2018-03-22T01:23:00.984Z,14.484096
2018-03-22T01:23:13.133Z,8.04672
2018-03-22T01:23:25.267Z,8.04672
2018-03-22T01:23:37.417Z,8.04672
2018-03-22T01:23:49.564Z,8.04672
2018-03-22T01:24:01.708Z,8.04672
2018-03-22T01:24:13.843Z,8.04672
2018-03-22T01:24:25.974Z,11.265408
2018-03-22T01:24:38.245Z,11.265408
2018-03-22T01:24:50.363Z,11.265408
2018-03-22T01:25:02.620Z,11.265408
2018-03-22T01:25:14.792Z,9.656064
2018-03-22T01:25:26.961Z,11.265408
2018-03-22T01:25:39.115Z,11.265408
2018-03-22T01:25:51.273Z,11.265408
2018-03-22T01:26:03.419Z,9.656064
2018-03-22T01:26:15.554Z,9.656064
2018-03-22T01:26:27.675Z,9.656064
2018-03-22T01:26:39.810Z,9.656064
2018-03-22T01:26:52.076Z,9.656064
2018-03-22T01:27:04.225Z,3.218688
2018-03-22T01:27:16.361Z,3.218688
2018-03-22T01:27:28.503Z,6.437376
2018-03-22T01:27:40.659Z,8.04672
2018-03-22T01:27:52.796Z,9.656064
2018-03-22T01:28:04.920Z,6.437376
2018-03-22T01:28:17.042Z,9.656064
2018-03-22T01:28:29.179Z,9.656064
2018-03-22T01:28:41.325Z,9.656064
2018-03-22T01:28:53.489Z,9.656064
2018-03-22T01:29:05.645Z,3.218688
2018-03-22T01:29:17.808Z,8.04672
2018-03-22T01:29:29.940Z,9.656064
2018-03-22T01:29:42.112Z,9.656064
2018-03-22T01:29:54.251Z,9.656064
2018-03-22T01:30:06.385Z,3.218688
2018-03-22T01:30:18.525Z,3.218688
2018-03-22T01:30:30.682Z,8.04672
2018-03-22T01:30:42.861Z,9.656064
2018-03-22T01:30:55.016Z,12.874752
2018-03-22T01:31:07.210Z,6.437376
2018-03-22T01:31:19.391Z,8.04672
2018-03-22T01:31:31.552Z,8.04672
2018-03-22T01:31:43.686Z,8.04672
2018-03-22T01:31:55.839Z,9.656064
2018-03-22T01:32:07.991Z,11.265408
2018-03-22T01:32:20.289Z,12.874752
2018-03-22T01:32:32.443Z,12.874752
2018-03-22T01:32:44.581Z,12.874752
2018-03-22T01:32:56.741Z,12.874752
2018-03-22T01:33:08.909Z,8.04672
2018-03-22T01:33:21.053Z,8.04672
2018-03-22T01:33:33.186Z,8.04672
2018-03-22T01:33:45.325Z,8.04672
2018-03-22T01:33:57.449Z,8.04672
2018-03-22T01:34:09.612Z,6.437376
2018-03-22T01:34:21.753Z,6.437376
2018-03-22T01:34:33.891Z,6.437376
2018-03-22T01:34:46.026Z,11.265408
2018-03-22T01:34:58.182Z,12.874752
2018-03-22T01:35:10.337Z,9.656064
2018-03-22T01:35:22.475Z,9.656064
2018-03-22T01:35:34.627Z,11.265408
2018-03-22T01:35:46.842Z,11.265408
2018-03-22T01:35:58.978Z,12.874752
2018-03-22T01:36:11.121Z,11.265408
2018-03-22T01:36:23.247Z,11.265408
2018-03-22T01:36:35.389Z,11.265408
2018-03-22T01:36:47.543Z,11.265408
2018-03-22T01:36:59.683Z,11.265408
2018-03-22T01:37:11.824Z,6.437376
2018-03-22T01:37:24.223Z,6.437376
2018-03-22T01:37:36.357Z,6.437376
2018-03-22T01:37:48.497Z,8.04672
2018-03-22T01:38:00.635Z,8.04672
2018-03-22T01:38:12.780Z,4.828032
2018-03-22T01:38:24.930Z,12.874752
2018-03-22T01:38:37.080Z,12.874752
2018-03-22T01:38:49.239Z,12.874752
2018-03-22T01:39:01.404Z,12.874752
2018-03-22T01:39:13.544Z,6.437376
2018-03-22T01:39:25.695Z,6.437376
2018-03-22T01:39:37.852Z,6.437376
2018-03-22T01:39:49.993Z,6.437376
2018-03-22T01:40:02.199Z,11.265408
2018-03-22T01:40:14.393Z,9.656064
2018-03-22T01:40:26.526Z,9.656064
2018-03-22T01:40:38.672Z,9.656064
2018-03-22T01:40:50.815Z,9.656064
2018-03-22T01:41:02.948Z,9.656064
2018-03-22T01:41:15.126Z,8.04672
2018-03-22T01:41:27.250Z,17.702784
2018-03-22T01:41:39.391Z,17.702784
2018-03-22T01:41:51.555Z,17.702784
2018-03-22T01:42:03.682Z,11.265408
2018-03-22T01:42:15.812Z,11.265408
2018-03-22T01:42:27.979Z,11.265408
2018-03-22T01:42:40.113Z,11.265408
2018-03-22T01:42:52.235Z,11.265408
2018-03-22T01:43:04.391Z,1.609344
2018-03-22T01:43:16.544Z,1.609344
2018-03-22T01:43:28.728Z,3.218688
2018-03-22T01:43:40.860Z,9.656064
2018-03-22T01:43:53.037Z,9.656064
2018-03-22T01:44:05.194Z,6.437376
2018-03-22T01:44:17.363Z,6.437376
2018-03-22T01:44:29.504Z,6.437376
2018-03-22T01:44:41.621Z,8.04672
2018-03-22T01:44:53.838Z,11.265408
2018-03-22T01:45:05.986Z,6.437376
2018-03-22T01:45:18.116Z,6.437376
2018-03-22T01:45:30.260Z,6.437376
2018-03-22T01:45:42.401Z,6.437376
2018-03-22T01:45:54.560Z,6.437376
2018-03-22T01:46:06.705Z,1.609344
2018-03-22T01:46:18.890Z,1.609344
2018-03-22T01:46:31.014Z,8.04672
2018-03-22T01:46:43.136Z,8.04672
2018-03-22T01:46:55.282Z,11.265408
2018-03-22T01:47:07.425Z,9.656064
2018-03-22T01:47:19.576Z,9.656064
2018-03-22T01:47:31.764Z,9.656064
2018-03-22T01:47:43.912Z,9.656064
2018-03-22T01:47:56.275Z,9.656064
2018-03-22T01:48:08.419Z,8.04672
2018-03-22T01:48:20.544Z,9.656064
2018-03-22T01:48:32.690Z,9.656064
2018-03-22T01:48:44.822Z,9.656064
2018-03-22T01:48:56.987Z,12.874752
2018-03-22T01:49:09.118Z,8.04672
2018-03-22T01:49:21.246Z,8.04672
2018-03-22T01:49:33.384Z,8.04672
2018-03-22T01:49:45.509Z,8.04672
2018-03-22T01:49:57.640Z,8.04672
2018-03-22T01:50:09.798Z,8.04672
2018-03-22T01:50:21.968Z,8.04672
2018-03-22T01:50:34.132Z,8.04672
2018-03-22T01:50:46.254Z,8.04672
2018-03-22T01:50:58.396Z,8.04672
2018-03-22T01:51:10.536Z,3.218688
2018-03-22T01:51:22.676Z,4.828032
2018-03-22T01:51:34.852Z,6.437376
2018-03-22T01:51:47.006Z,6.437376
2018-03-22T01:51:59.140Z,6.437376
2018-03-22T01:52:11.281Z,6.437376
2018-03-22T01:52:23.421Z,8.04672
2018-03-22T01:52:35.554Z,12.874752
2018-03-22T01:52:47.818Z,12.874752
2018-03-22T01:52:59.958Z,12.874752
2018-03-22T01:53:12.101Z,6.437376
2018-03-22T01:53:24.252Z,6.437376
2018-03-22T01:53:36.366Z,6.437376
2018-03-22T01:53:48.508Z,6.437376
2018-03-22T01:54:00.636Z,6.437376
2018-03-22T01:54:12.759Z,3.218688
2018-03-22T01:54:24.890Z,3.218688
2018-03-22T01:54:37.035Z,3.218688
2018-03-22T01:54:49.539Z,3.218688
2018-03-22T01:55:01.665Z,6.437376
2018-03-22T01:55:13.840Z,8.04672
2018-03-22T01:55:25.969Z,8.04672
2018-03-22T01:55:38.227Z,8.04672
2018-03-22T01:55:50.369Z,8.04672
2018-03-22T01:56:02.515Z,8.04672
2018-03-22T01:56:14.655Z,6.437376
2018-03-22T01:56:26.802Z,8.04672
2018-03-22T01:56:38.931Z,11.265408
2018-03-22T01:56:51.072Z,12.874752
2018-03-22T01:57:03.250Z,6.437376
2018-03-22T01:57:15.386Z,6.437376
2018-03-22T01:57:27.577Z,6.437376
2018-03-22T01:57:39.710Z,6.437376
2018-03-22T01:57:51.866Z,8.04672
2018-03-22T01:58:04.012Z,11.265408
2018-03-22T01:58:16.174Z,11.265408
2018-03-22T01:58:28.309Z,11.265408
2018-03-22T01:58:40.444Z,11.265408
2018-03-22T01:58:52.575Z,11.265408
2018-03-22T01:59:04.771Z,14.484096
2018-03-22T01:59:16.916Z,14.484096
2018-03-22T01:59:29.035Z,14.484096
2018-03-22T01:59:41.250Z,14.484096
2018-03-22T01:59:53.403Z,14.484096
2018-03-22T02:00:05.558Z,9.656064
2018-03-22T02:00:17.718Z,9.656064
2018-03-22T02:00:29.908Z,9.656064
2018-03-22T02:00:42.047Z,9.656064
2018-03-22T02:00:54.178Z,9.656064
2018-03-22T02:01:06.317Z,0
2018-03-22T02:01:18.463Z,1.609344
2018-03-22T02:01:30.637Z,4.828032
2018-03-22T02:01:42.762Z,8.04672
2018-03-22T02:01:55.113Z,8.04672
2018-03-22T02:02:07.244Z,4.828032
2018-03-22T02:02:19.433Z,4.828032
2018-03-22T02:02:31.610Z,6.437376
2018-03-22T02:02:43.746Z,6.437376
2018-03-22T02:02:55.903Z,9.656064
2018-03-22T02:03:08.031Z,8.04672
2018-03-22T02:03:20.188Z,8.04672
2018-03-22T02:03:32.323Z,8.04672
2018-03-22T02:03:44.457Z,8.04672
2018-03-22T02:03:56.578Z,8.04672
2018-03-22T02:04:08.723Z,6.437376
2018-03-22T02:04:20.859Z,6.437376
2018-03-22T02:04:32.981Z,11.265408
2018-03-22T02:04:45.142Z,12.874752
2018-03-22T02:04:57.272Z,12.874752
2018-03-22T02:05:09.414Z,9.656064
2018-03-22T02:05:21.563Z,9.656064
2018-03-22T02:05:33.709Z,11.265408
2018-03-22T02:05:45.855Z,11.265408
2018-03-22T02:05:58.031Z,11.265408
2018-03-22T02:06:10.171Z,4.828032
2018-03-22T02:06:22.335Z,4.828032
2018-03-22T02:06:34.569Z,9.656064
2018-03-22T02:06:46.718Z,9.656064
2018-03-22T02:06:58.860Z,9.656064
2018-03-22T02:07:11.020Z,9.656064
2018-03-22T02:07:23.300Z,11.265408
2018-03-22T02:07:35.433Z,11.265408
2018-03-22T02:07:47.583Z,11.265408
2018-03-22T02:07:59.715Z,11.265408
2018-03-22T02:08:11.859Z,11.265408
2018-03-22T02:08:23.996Z,11.265408
2018-03-22T02:08:36.143Z,11.265408
2018-03-22T02:08:48.268Z,11.265408
2018-03-22T02:09:00.405Z,11.265408
2018-03-22T02:09:12.512Z,3.218688
2018-03-22T02:09:24.650Z,3.218688
2018-03-22T02:09:36.771Z,3.218688
2018-03-22T02:09:48.914Z,3.218688
2018-03-22T02:10:01.049Z,12.874752
2018-03-22T02:10:13.714Z,8.04672
2018-03-22T02:10:25.912Z,8.04672
2018-03-22T02:10:38.068Z,8.04672
2018-03-22T02:10:50.219Z,8.04672
2018-03-22T02:11:02.347Z,8.04672
2018-03-22T02:11:14.670Z,6.437376
2018-03-22T02:11:26.814Z,8.04672
2018-03-22T02:11:38.982Z,8.04672
2018-03-22T02:11:51.176Z,8.04672
2018-03-22T02:12:03.315Z,8.04672
2018-03-22T02:12:15.470Z,9.656064
2018-03-22T02:12:27.594Z,9.656064
2018-03-22T02:12:39.767Z,9.656064
2018-03-22T02:12:52.060Z,9.656064
2018-03-22T02:13:04.190Z,8.04672
2018-03-22T02:13:16.329Z,9.656064
2018-03-22T02:13:28.465Z,9.656064
2018-03-22T02:13:40.681Z,11.265408
2018-03-22T02:13:52.849Z,11.265408
2018-03-22T02:14:05.176Z,12.874752
2018-03-22T02:14:17.318Z,12.874752
2018-03-22T02:14:29.441Z,12.874752
2018-03-22T02:14:41.585Z,12.874752
2018-03-22T02:14:53.724Z,12.874752
2018-03-22T02:15:05.876Z,6.437376
2018-03-22T02:15:18.026Z,8.04672
2018-03-22T02:15:30.164Z,9.656064
2018-03-22T02:15:42.309Z,9.656064
2018-03-22T02:15:54.442Z,9.656064
2018-03-22T02:16:06.578Z,6.437376
2018-03-22T02:16:18.747Z,8.04672
2018-03-22T02:16:30.886Z,9.656064
2018-03-22T02:16:43.129Z,9.656064
2018-03-22T02:16:55.247Z,9.656064
2018-03-22T02:17:07.394Z,4.828032
2018-03-22T02:17:19.532Z,8.04672
2018-03-22T02:17:31.657Z,8.04672
2018-03-22T02:17:43.835Z,8.04672
2018-03-22T02:17:55.961Z,8.04672
2018-03-22T02:18:08.080Z,1.609344
2018-03-22T02:18:20.228Z,1.609344
2018-03-22T02:18:32.368Z,1.609344
2018-03-22T02:18:44.631Z,1.609344
2018-03-22T02:18:56.793Z,3.218688
2018-03-22T02:19:08.935Z,8.04672
2018-03-22T02:19:21.069Z,9.656064
2018-03-22T02:19:33.218Z,9.656064
2018-03-22T02:19:45.367Z,9.656064
2018-03-22T02:19:57.558Z,14.484096
2018-03-22T02:20:09.691Z,11.265408
2018-03-22T02:20:21.861Z,11.265408
2018-03-22T02:20:34.050Z,11.265408
2018-03-22T02:20:46.206Z,11.265408
2018-03-22T02:20:58.350Z,11.265408
2018-03-22T02:21:10.484Z,4.828032
2018-03-22T02:21:22.628Z,4.828032
2018-03-22T02:21:34.771Z,9.656064
2018-03-22T02:21:46.907Z,9.656064
2018-03-22T02:21:59.048Z,9.656064
2018-03-22T02:22:11.170Z,9.656064
2018-03-22T02:22:23.372Z,9.656064
2018-03-22T02:22:35.554Z,9.656064
2018-03-22T02:22:47.710Z,9.656064
2018-03-22T02:22:59.856Z,9.656064